Time;durP1;ratioP1;P1;durP2;ratioP2;P2;SDS_P1;SDS_P2;PMS_P1;PMS_P2;Temp;Humidity;BMP_temperature;BMP_pressure;BME280_temperature;BME280_humidity;BME280_pressure;Samples;Min_cycle;Max_cycle;Signal;HPM_P1;HPM_P2
2022/02/12 00:00:16;;;;;;;9.80;5.47;;;-3.70;99.90;;;;;;2089226;28;20184;-69
2022/02/12 00:01:17;;;;;;;9.57;5.00;;;-3.80;99.90;;;;;;2088013;28;20214;-68
2022/02/12 00:02:18;;;;;;;11.50;5.07;;;-3.90;99.90;;;;;;2086663;28;20242;-69
2022/02/12 00:03:18;;;;;;;9.95;5.22;;;-3.90;99.90;;;;;;2092723;28;20211;-69
2022/02/12 00:04:19;;;;;;;12.07;5.00;;;-3.90;99.90;;;;;;2088810;28;20203;-68
2022/02/12 00:05:24;;;;;;;11.33;5.10;;;-3.90;99.90;;;;;;2088912;28;20651;-72
2022/02/12 00:06:25;;;;;;;9.02;4.65;;;-3.90;99.90;;;;;;2088543;28;20195;-70
2022/02/12 00:07:25;;;;;;;13.60;4.97;;;-3.90;99.90;;;;;;2091524;28;20777;-72
2022/02/12 00:08:26;;;;;;;14.30;4.23;;;-3.90;99.90;;;;;;2104784;28;20678;-71
2022/02/12 00:09:27;;;;;;;10.53;5.10;;;-3.90;99.90;;;;;;2095310;28;20199;-69
2022/02/12 00:10:30;;;;;;;8.00;3.90;;;-3.90;99.90;;;;;;2088314;28;20196;-73
2022/02/12 00:11:30;;;;;;;14.45;4.50;;;-3.90;99.90;;;;;;2083271;28;20173;-74
2022/02/12 00:12:31;;;;;;;8.73;4.13;;;-3.90;99.90;;;;;;2088492;28;20185;-74
2022/02/12 00:13:32;;;;;;;9.33;4.37;;;-3.90;99.90;;;;;;2090600;28;20688;-69
2022/02/12 00:14:33;;;;;;;11.50;4.27;;;-3.90;99.90;;;;;;2104744;28;20256;-69
2022/02/12 00:15:33;;;;;;;12.23;4.67;;;-3.90;99.90;;;;;;2103326;28;20705;-69
2022/02/12 00:16:34;;;;;;;6.93;4.00;;;-3.90;99.90;;;;;;2097392;28;20528;-70
2022/02/12 00:17:35;;;;;;;14.83;5.43;;;-3.90;99.90;;;;;;2090924;28;20181;-69
2022/02/12 00:18:36;;;;;;;12.10;4.27;;;-4.00;99.90;;;;;;2088459;28;20180;-71
2022/02/12 00:19:36;;;;;;;9.80;4.87;;;-4.00;99.90;;;;;;2088992;28;20176;-70
2022/02/12 00:20:37;;;;;;;9.80;4.07;;;-4.10;99.90;;;;;;2096572;28;20513;-72
2022/02/12 00:21:38;;;;;;;7.05;4.47;;;-4.10;99.90;;;;;;2091110;28;20179;-70
2022/02/12 00:22:39;;;;;;;7.13;4.37;;;-4.10;99.90;;;;;;2097177;28;20625;-72
2022/02/12 00:23:40;;;;;;;9.30;3.92;;;-4.10;99.90;;;;;;2089903;28;20204;-67
2022/02/12 00:24:41;;;;;;;9.27;3.90;;;-4.20;99.90;;;;;;2088678;28;20190;-69
2022/02/12 00:25:41;;;;;;;10.10;3.87;;;-4.10;99.90;;;;;;2089752;28;20230;-69
2022/02/12 00:26:42;;;;;;;10.03;3.30;;;-4.10;99.90;;;;;;2092832;28;20926;-69
2022/02/12 00:27:43;;;;;;;8.13;4.07;;;-4.20;99.90;;;;;;2088871;28;20635;-70
2022/02/12 00:28:43;;;;;;;5.70;4.27;;;-4.20;99.90;;;;;;2088340;28;20586;-70
2022/02/12 00:29:44;;;;;;;6.87;3.60;;;-4.10;99.90;;;;;;2090037;28;20525;-69
2022/02/12 00:30:45;;;;;;;9.60;4.47;;;-4.10;99.90;;;;;;2097114;28;20233;-71
2022/02/12 00:31:45;;;;;;;6.47;3.40;;;-4.10;99.90;;;;;;2089509;28;20177;-71
2022/02/12 00:32:46;;;;;;;7.27;3.57;;;-4.20;99.90;;;;;;2088075;28;20174;-72
2022/02/12 00:33:47;;;;;;;6.83;3.43;;;-4.20;99.90;;;;;;2088193;28;20181;-71
2022/02/12 00:34:48;;;;;;;10.40;4.40;;;-4.20;99.90;;;;;;2088652;28;20183;-72
2022/02/12 00:35:49;;;;;;;8.40;4.22;;;-4.20;99.90;;;;;;2088778;28;20188;-71
2022/02/12 00:36:49;;;;;;;8.43;4.20;;;-4.20;99.90;;;;;;2089066;28;20192;-71
2022/02/12 00:37:50;;;;;;;9.37;3.97;;;-4.20;99.90;;;;;;2088746;28;20945;-71
2022/02/12 00:38:51;;;;;;;6.73;3.87;;;-4.20;99.90;;;;;;2088524;28;20243;-72
2022/02/12 00:39:52;;;;;;;11.45;4.65;;;-4.20;99.90;;;;;;2080565;28;20715;-71
2022/02/12 00:40:53;;;;;;;6.10;3.60;;;-4.20;99.90;;;;;;2088530;28;20278;-71
2022/02/12 00:41:53;;;;;;;6.17;3.97;;;-4.30;99.90;;;;;;2088271;28;20180;-71
2022/02/12 00:42:54;;;;;;;8.73;3.57;;;-4.30;99.90;;;;;;2080313;28;20266;-71
2022/02/12 00:43:55;;;;;;;7.53;3.57;;;-4.30;99.90;;;;;;2088583;28;20242;-71
2022/02/12 00:44:55;;;;;;;7.73;3.37;;;-4.30;99.90;;;;;;2096788;28;20190;-71
2022/02/12 00:45:56;;;;;;;7.20;3.70;;;-4.30;99.90;;;;;;2088643;28;20186;-71
2022/02/12 00:46:57;;;;;;;10.37;4.07;;;-4.30;99.90;;;;;;2088664;28;20632;-71
2022/02/12 00:47:58;;;;;;;11.57;4.27;;;-4.30;99.90;;;;;;2088703;28;20230;-71
2022/02/12 00:48:58;;;;;;;8.70;3.63;;;-4.40;99.90;;;;;;2088589;28;20873;-71
2022/02/12 00:49:59;;;;;;;6.27;3.60;;;-4.40;99.90;;;;;;2096865;28;20274;-71
2022/02/12 00:51:00;;;;;;;6.23;3.33;;;-4.40;99.90;;;;;;2097019;28;20627;-71
2022/02/12 00:52:00;;;;;;;7.53;4.17;;;-4.30;99.90;;;;;;2088617;28;20580;-71
2022/02/12 00:53:01;;;;;;;6.80;3.57;;;-4.30;99.90;;;;;;2088723;28;20652;-71
2022/02/12 00:54:02;;;;;;;10.93;4.53;;;-4.30;99.90;;;;;;2089527;28;20307;-71
2022/02/12 00:55:04;;;;;;;6.93;3.42;;;-4.30;99.90;;;;;;2088226;28;20172;-72
2022/02/12 00:56:04;;;;;;;7.00;3.30;;;-4.30;99.90;;;;;;2088652;28;20275;-71
2022/02/12 00:57:05;;;;;;;7.60;4.03;;;-4.40;99.90;;;;;;2088465;28;20180;-72
2022/02/12 00:58:06;;;;;;;6.27;3.63;;;-4.40;99.90;;;;;;2088569;28;20630;-72
2022/02/12 00:59:06;;;;;;;8.07;4.40;;;-4.40;99.90;;;;;;2088519;28;20216;-71
2022/02/12 01:00:08;;;;;;;9.23;3.87;;;-4.40;99.90;;;;;;2089140;28;20177;-72
2022/02/12 01:01:08;;;;;;;6.60;3.72;;;-4.40;99.90;;;;;;2088505;28;20232;-71
2022/02/12 01:02:09;;;;;;;8.33;3.50;;;-4.40;99.90;;;;;;2085162;28;20275;-71
2022/02/12 01:03:10;;;;;;;8.37;4.23;;;-4.40;99.90;;;;;;2091345;28;20203;-71
2022/02/12 01:04:11;;;;;;;8.25;4.03;;;-4.40;99.90;;;;;;2093677;28;20184;-71
2022/02/12 01:05:11;;;;;;;6.23;3.73;;;-4.40;99.90;;;;;;2091033;28;20194;-72
2022/02/12 01:06:12;;;;;;;6.83;3.97;;;-4.40;99.90;;;;;;2093790;28;20266;-71
2022/02/12 01:07:13;;;;;;;7.13;4.07;;;-4.40;99.90;;;;;;2092002;28;20263;-72
2022/02/12 01:08:14;;;;;;;9.17;3.43;;;-4.50;99.90;;;;;;2079932;28;20711;-71
2022/02/12 01:09:14;;;;;;;9.60;4.37;;;-4.50;99.90;;;;;;2080163;28;20180;-71
2022/02/12 01:10:15;;;;;;;7.07;4.00;;;-4.50;99.90;;;;;;2089075;28;20188;-71
2022/02/12 01:11:16;;;;;;;7.40;3.43;;;-4.50;99.90;;;;;;2089017;28;20203;-71
2022/02/12 01:12:16;;;;;;;10.40;4.73;;;-4.60;99.90;;;;;;2088695;28;20181;-71
2022/02/12 01:13:17;;;;;;;6.20;3.53;;;-4.60;99.90;;;;;;2088143;28;20827;-71
2022/02/12 01:14:18;;;;;;;5.33;3.60;;;-4.60;99.90;;;;;;2088331;28;20239;-72
2022/02/12 01:15:18;;;;;;;8.93;4.13;;;-4.50;99.90;;;;;;2088588;28;20666;-72
2022/02/12 01:16:19;;;;;;;5.23;3.00;;;-4.50;99.90;;;;;;2080248;28;20238;-71
2022/02/12 01:17:20;;;;;;;5.93;3.20;;;-4.60;99.90;;;;;;2088555;28;20758;-71
2022/02/12 01:18:20;;;;;;;7.73;3.63;;;-4.50;99.90;;;;;;2089029;28;20208;-71
2022/02/12 01:19:21;;;;;;;4.90;3.00;;;-4.50;99.90;;;;;;2088421;28;20227;-71
2022/02/12 01:20:22;;;;;;;5.17;3.50;;;-4.50;99.90;;;;;;2080225;28;20264;-72
2022/02/12 01:21:23;;;;;;;5.60;3.13;;;-4.50;99.90;;;;;;2088571;28;20552;-72
2022/02/12 01:22:24;;;;;;;7.15;3.25;;;-4.50;99.90;;;;;;2089072;28;20264;-72
2022/02/12 01:23:25;;;;;;;5.53;3.37;;;-4.50;99.90;;;;;;2089221;28;20204;-72
2022/02/12 01:24:26;;;;;;;7.47;3.60;;;-4.50;99.90;;;;;;2088875;28;20620;-72
2022/02/12 01:25:27;;;;;;;7.70;3.03;;;-4.50;99.90;;;;;;2089072;28;20185;-72
2022/02/12 01:26:28;;;;;;;6.40;3.00;;;-4.50;99.90;;;;;;2088958;28;20184;-72
2022/02/12 01:27:29;;;;;;;8.65;3.75;;;-4.50;99.90;;;;;;2088488;28;20721;-72
2022/02/12 01:28:30;;;;;;;6.00;3.70;;;-4.40;99.90;;;;;;2088629;28;20176;-72
2022/02/12 01:29:30;;;;;;;6.90;2.97;;;-4.50;99.90;;;;;;2089075;28;20188;-72
2022/02/12 01:30:31;;;;;;;6.87;3.07;;;-4.50;99.90;;;;;;2089030;28;20211;-72
2022/02/12 01:31:32;;;;;;;6.32;3.65;;;-4.50;99.90;;;;;;2088417;28;20183;-72
2022/02/12 01:32:33;;;;;;;6.72;3.30;;;-4.60;99.90;;;;;;2088274;28;20278;-72
2022/02/12 01:33:34;;;;;;;5.37;3.60;;;-4.60;99.90;;;;;;2088489;28;20252;-73
2022/02/12 01:34:36;;;;;;;4.20;2.70;;;-4.60;99.90;;;;;;2088387;28;20616;-71
2022/02/12 01:35:37;;;;;;;5.30;3.40;;;-4.60;99.90;;;;;;2088388;28;20237;-71
2022/02/12 01:36:38;;;;;;;5.90;4.03;;;-4.70;99.90;;;;;;2088297;28;20230;-71
2022/02/12 01:37:40;;;;;;;9.00;3.43;;;-4.70;99.90;;;;;;2088473;28;20173;-71
2022/02/12 01:38:40;;;;;;;5.72;3.50;;;-4.60;99.90;;;;;;2088979;28;20552;-71
2022/02/12 01:39:41;;;;;;;7.83;3.60;;;-4.60;99.90;;;;;;2088989;28;20180;-71
2022/02/12 01:40:42;;;;;;;6.77;4.03;;;-4.60;99.90;;;;;;2089014;28;20789;-71
2022/02/12 01:41:43;;;;;;;9.23;3.43;;;-4.60;99.90;;;;;;2088673;28;20186;-71
2022/02/12 01:42:43;;;;;;;6.43;3.53;;;-4.60;99.90;;;;;;2088683;28;20242;-72
2022/02/12 01:43:44;;;;;;;5.17;2.97;;;-4.60;99.90;;;;;;2088397;28;20224;-72
2022/02/12 01:44:46;;;;;;;6.82;4.20;;;-4.60;99.90;;;;;;2079968;28;20282;-71
2022/02/12 01:45:47;;;;;;;7.57;3.40;;;-4.60;99.90;;;;;;2080158;28;20311;-71
2022/02/12 01:46:47;;;;;;;7.67;3.20;;;-4.70;99.90;;;;;;2080052;28;20173;-70
2022/02/12 01:47:51;;;;;;;6.13;3.63;;;-4.70;99.90;;;;;;2088448;28;20266;-71
2022/02/12 01:48:52;;;;;;;9.32;4.10;;;-4.60;99.90;;;;;;2088075;28;20187;-71
2022/02/12 01:49:53;;;;;;;7.83;4.27;;;-4.70;99.90;;;;;;2088355;28;20210;-71
2022/02/12 01:50:55;;;;;;;6.15;3.50;;;-4.70;99.90;;;;;;2088291;28;20295;-71
2022/02/12 01:51:57;;;;;;;6.10;3.78;;;-4.70;99.90;;;;;;2080143;28;20177;-71
2022/02/12 01:52:58;;;;;;;6.47;3.38;;;-4.80;99.90;;;;;;2088280;28;20246;-71
2022/02/12 01:53:58;;;;;;;5.70;3.10;;;-4.80;99.90;;;;;;2088983;28;20270;-71
2022/02/12 01:55:05;;;;;;;4.03;2.50;;;-4.80;99.90;;;;;;2088788;28;20184;-71
2022/02/12 01:56:06;;;;;;;6.25;2.50;;;-4.70;99.90;;;;;;2088156;28;20195;-71
2022/02/12 01:57:08;;;;;;;4.07;2.63;;;-4.70;99.90;;;;;;2080177;28;20189;-71
2022/02/12 01:58:09;;;;;;;6.95;2.42;;;-4.70;99.90;;;;;;2088122;28;21016;-71
2022/02/12 01:59:10;;;;;;;5.97;3.03;;;-4.70;99.90;;;;;;2088125;28;20234;-72
2022/02/12 02:00:15;;;;;;;3.87;2.47;;;-4.70;99.90;;;;;;2080092;28;20185;-72
2022/02/12 02:01:17;;;;;;;6.90;3.08;;;-4.70;99.90;;;;;;2088387;28;20180;-72
2022/02/12 02:02:17;;;;;;;4.35;2.35;;;-4.60;99.90;;;;;;2088843;28;20600;-71
2022/02/12 02:03:18;;;;;;;5.30;2.57;;;-4.60;99.90;;;;;;2088954;28;20220;-71
2022/02/12 02:04:20;;;;;;;4.33;2.50;;;-4.60;99.90;;;;;;2088888;28;20813;-72
2022/02/12 02:05:20;;;;;;;7.88;2.90;;;-4.60;99.90;;;;;;2088331;28;20191;-71
2022/02/12 02:06:21;;;;;;;6.87;2.73;;;-4.60;99.90;;;;;;2088349;28;20561;-72
2022/02/12 02:07:22;;;;;;;6.40;2.67;;;-4.60;99.90;;;;;;2089024;28;20254;-72
2022/02/12 02:08:23;;;;;;;6.77;3.53;;;-4.60;99.90;;;;;;2088158;28;20207;-72
2022/02/12 02:09:24;;;;;;;5.53;3.13;;;-4.60;99.90;;;;;;2071745;28;20189;-71
2022/02/12 02:10:25;;;;;;;4.73;2.97;;;-4.70;99.90;;;;;;2079839;28;20274;-71
2022/02/12 02:11:26;;;;;;;5.88;2.60;;;-4.70;99.90;;;;;;2088372;28;20180;-72
2022/02/12 02:12:27;;;;;;;5.57;3.27;;;-4.70;99.90;;;;;;2088268;28;20837;-72
2022/02/12 02:13:28;;;;;;;5.90;2.40;;;-4.70;99.90;;;;;;2088851;28;20192;-71
2022/02/12 02:14:38;;;;;;;12.73;3.38;;;-4.70;99.90;;;;;;2088016;28;20180;-71
2022/02/12 02:15:39;;;;;;;4.07;2.50;;;-4.70;99.90;;;;;;2081507;28;20842;-72
2022/02/12 02:16:42;;;;;;;7.33;2.97;;;-4.80;99.90;;;;;;2079871;28;20181;-71
2022/02/12 02:17:43;;;;;;;5.07;2.47;;;-4.80;99.90;;;;;;2080394;28;20174;-71
2022/02/12 02:18:43;;;;;;;6.07;3.00;;;-4.90;99.90;;;;;;2088300;28;20263;-71
2022/02/12 02:19:44;;;;;;;4.87;2.70;;;-4.90;99.90;;;;;;2088100;28;20253;-71
2022/02/12 02:20:45;;;;;;;6.70;2.90;;;-4.80;99.90;;;;;;2079772;28;20212;-71
2022/02/12 02:21:47;;;;;;;6.10;2.83;;;-4.90;99.90;;;;;;2080136;28;20648;-72
2022/02/12 02:22:55;;;;;;;5.65;3.10;;;-4.90;99.90;;;;;;2080093;28;20212;-71
2022/02/12 02:23:56;;;;;;;4.43;2.92;;;-5.00;99.90;;;;;;2089139;28;20667;-71
2022/02/12 02:24:57;;;;;;;5.65;2.88;;;-5.10;99.90;;;;;;2089727;28;20188;-71
2022/02/12 02:25:59;;;;;;;5.40;2.80;;;-5.10;99.90;;;;;;2089813;28;20183;-71
2022/02/12 02:27:09;;;;;;;5.43;2.97;;;-5.20;99.90;;;;;;2089789;28;20188;-71
2022/02/12 02:28:10;;;;;;;5.13;2.95;;;-5.20;99.90;;;;;;2089712;28;20271;-72
2022/02/12 02:29:11;;;;;;;5.03;3.57;;;-5.10;99.90;;;;;;2081548;28;20177;-71
2022/02/12 02:30:17;;;;;;;5.50;3.00;;;-5.10;99.90;;;;;;2089889;28;20836;-71
2022/02/12 02:31:18;;;;;;;5.45;2.75;;;-5.00;99.90;;;;;;2089629;28;20629;-71
2022/02/12 02:32:19;;;;;;;4.77;3.43;;;-5.00;99.90;;;;;;2089803;28;20197;-71
2022/02/12 02:33:19;;;;;;;6.57;2.67;;;-5.00;99.90;;;;;;2089692;28;20212;-72
2022/02/12 02:34:20;;;;;;;6.60;3.10;;;-5.00;99.90;;;;;;2089669;28;20188;-72
2022/02/12 02:35:22;;;;;;;5.47;2.83;;;-4.90;99.90;;;;;;2089725;28;20553;-72
2022/02/12 02:36:23;;;;;;;5.55;3.30;;;-5.00;99.90;;;;;;2089846;28;20180;-72
2022/02/12 02:37:25;;;;;;;7.40;3.20;;;-4.90;99.90;;;;;;2089690;28;20274;-72
2022/02/12 02:38:26;;;;;;;4.15;2.75;;;-5.00;99.90;;;;;;2089823;28;20187;-72
2022/02/12 02:39:27;;;;;;;7.38;3.85;;;-5.00;99.90;;;;;;2090289;28;20250;-72
2022/02/12 02:40:27;;;;;;;6.93;3.93;;;-5.00;99.90;;;;;;2090310;28;20270;-72
2022/02/12 02:41:28;;;;;;;5.77;3.27;;;-5.00;99.90;;;;;;2090381;28;20188;-71
2022/02/12 02:42:29;;;;;;;9.33;3.77;;;-5.00;99.90;;;;;;2089638;28;20184;-71
2022/02/12 02:43:30;;;;;;;8.50;3.38;;;-5.00;99.90;;;;;;2089490;28;20211;-71
2022/02/12 02:44:30;;;;;;;5.53;3.37;;;-5.00;99.90;;;;;;2090157;28;20189;-71
2022/02/12 02:45:32;;;;;;;6.37;3.30;;;-5.00;99.90;;;;;;2089564;28;20176;-71
2022/02/12 02:46:32;;;;;;;8.20;3.15;;;-5.10;99.90;;;;;;2081370;28;20205;-71
2022/02/12 02:47:36;;;;;;;8.03;2.40;;;-5.00;99.90;;;;;;2089464;28;20184;-71
2022/02/12 02:48:36;;;;;;;5.78;2.80;;;-5.00;99.90;;;;;;2089603;28;20179;-71
2022/02/12 02:49:37;;;;;;;7.00;3.17;;;-5.00;99.90;;;;;;2089554;28;20191;-72
2022/02/12 02:56:00;;;;;;;5.95;3.15;;;-5.00;99.90;;;;;;2090176;28;20216;-71
2022/02/12 02:57:01;;;;;;;5.15;2.25;;;-4.90;99.90;;;;;;2089787;28;20679;-71
2022/02/12 02:58:02;;;;;;;4.38;2.58;;;-4.90;99.90;;;;;;2082041;28;20189;-72
2022/02/12 02:59:03;;;;;;;3.80;2.60;;;-4.90;99.90;;;;;;2089357;28;20616;-71
2022/02/12 03:00:04;;;;;;;5.33;3.00;;;-4.80;99.90;;;;;;2089281;28;20250;-71
2022/02/12 03:01:08;;;;;;;5.07;2.42;;;-4.80;99.90;;;;;;2089488;28;20267;-72
2022/02/12 03:02:09;;;;;;;4.18;2.53;;;-4.80;99.90;;;;;;2090040;28;20181;-71
2022/02/12 03:03:10;;;;;;;3.07;2.47;;;-4.90;99.90;;;;;;2081075;28;20230;-72
2022/02/12 03:04:10;;;;;;;4.60;2.77;;;-4.90;99.90;;;;;;2081170;28;20185;-71
2022/02/12 03:05:11;;;;;;;6.83;2.70;;;-4.90;99.90;;;;;;2089309;28;20195;-70
2022/02/12 03:06:14;;;;;;;6.63;3.10;;;-5.00;99.90;;;;;;2089259;28;20209;-71
2022/02/12 03:07:15;;;;;;;3.95;2.38;;;-5.10;99.90;;;;;;2089597;28;20173;-71
2022/02/12 03:08:16;;;;;;;4.30;2.60;;;-5.10;99.90;;;;;;2089287;28;20707;-71
2022/02/12 03:09:16;;;;;;;5.83;3.27;;;-5.00;99.90;;;;;;2089343;28;20580;-71
2022/02/12 03:10:17;;;;;;;5.90;2.97;;;-5.10;99.90;;;;;;2089502;28;20235;-71
2022/02/12 03:11:18;;;;;;;8.50;3.33;;;-5.10;99.90;;;;;;2089585;28;20177;-71
2022/02/12 03:12:18;;;;;;;4.27;2.53;;;-5.10;99.90;;;;;;2090099;28;20532;-71
2022/02/12 03:13:19;;;;;;;3.97;3.10;;;-5.10;99.90;;;;;;2089950;28;20708;-71
2022/02/12 03:14:20;;;;;;;5.93;2.90;;;-5.10;99.90;;;;;;2089228;28;20618;-71
2022/02/12 03:15:21;;;;;;;6.50;3.23;;;-5.10;99.90;;;;;;2089465;28;20187;-71
2022/02/12 03:16:22;;;;;;;4.90;2.90;;;-5.10;99.90;;;;;;2089839;28;20207;-71
2022/02/12 03:17:23;;;;;;;4.38;2.78;;;-5.10;99.90;;;;;;2089926;28;20181;-71
2022/02/12 03:18:24;;;;;;;5.40;2.53;;;-5.10;99.90;;;;;;2089388;28;20211;-71
2022/02/12 03:19:25;;;;;;;4.47;2.17;;;-5.20;99.90;;;;;;2089361;28;20191;-70
2022/02/12 03:20:26;;;;;;;4.70;2.80;;;-5.20;99.90;;;;;;2089356;28;21031;-72
2022/02/12 03:21:26;;;;;;;7.30;2.30;;;-5.20;99.90;;;;;;2089810;28;20188;-71
2022/02/12 03:22:27;;;;;;;8.00;2.43;;;-5.20;99.90;;;;;;2089995;28;20188;-71
2022/02/12 03:23:28;;;;;;;6.33;2.43;;;-5.10;99.90;;;;;;2089203;28;20212;-71
2022/02/12 03:24:28;;;;;;;4.13;2.37;;;-5.20;99.90;;;;;;2089270;28;20734;-71
2022/02/12 03:25:29;;;;;;;4.30;2.70;;;-5.20;99.90;;;;;;2089297;28;20915;-71
2022/02/12 03:26:30;;;;;;;4.88;2.65;;;-5.20;99.90;;;;;;2089152;28;20233;-71
2022/02/12 03:27:31;;;;;;;6.83;3.93;;;-5.20;99.90;;;;;;2089196;28;20233;-71
2022/02/12 03:28:32;;;;;;;9.37;3.53;;;-5.20;99.90;;;;;;2089104;28;20185;-71
2022/02/12 03:29:33;;;;;;;6.10;3.22;;;-5.10;99.90;;;;;;2089170;28;20184;-71
2022/02/12 03:30:42;;;;;;;5.75;3.00;;;-5.10;99.90;;;;;;2089333;28;20211;-71
2022/02/12 03:31:43;;;;;;;5.03;2.80;;;-5.10;99.90;;;;;;2082057;28;20167;-71
2022/02/12 03:32:43;;;;;;;6.63;2.67;;;-5.10;99.90;;;;;;2089293;28;20188;-71
2022/02/12 03:33:44;;;;;;;7.87;2.90;;;-5.10;99.90;;;;;;2089799;28;20196;-71
2022/02/12 03:34:45;;;;;;;5.70;3.27;;;-5.20;99.90;;;;;;2088966;28;20172;-71
2022/02/12 03:35:48;;;;;;;4.20;2.20;;;-5.20;99.90;;;;;;2088557;28;20172;-71
2022/02/12 03:36:49;;;;;;;4.90;2.47;;;-5.20;99.90;;;;;;2080911;28;20185;-71
2022/02/12 03:37:50;;;;;;;5.67;2.97;;;-5.20;99.90;;;;;;2081194;28;20246;-71
2022/02/12 03:38:51;;;;;;;9.10;3.13;;;-5.20;99.90;;;;;;2087878;28;20196;-72
2022/02/12 03:39:52;;;;;;;4.07;2.67;;;-5.20;99.90;;;;;;2089690;28;20742;-71
2022/02/12 03:41:02;;;;;;;4.78;2.40;;;-5.20;99.90;;;;;;2083476;28;20224;-71
2022/02/12 03:42:03;;;;;;;3.10;2.28;;;-5.20;99.90;;;;;;2080942;28;20220;-71
2022/02/12 03:43:06;;;;;;;6.10;2.70;;;-5.20;99.90;;;;;;2080772;28;20185;-71
2022/02/12 03:44:07;;;;;;;5.70;2.80;;;-5.20;99.90;;;;;;2081044;28;20204;-70
2022/02/12 03:45:08;;;;;;;3.97;2.17;;;-5.20;99.90;;;;;;2080664;28;20189;-71
2022/02/12 03:46:09;;;;;;;5.05;2.47;;;-5.20;99.90;;;;;;2081068;28;20189;-72
2022/02/12 03:47:10;;;;;;;3.67;2.00;;;-5.20;99.90;;;;;;2081575;28;20696;-72
2022/02/12 03:48:11;;;;;;;5.57;2.83;;;-5.20;99.90;;;;;;2080792;28;20263;-72
2022/02/12 03:49:11;;;;;;;6.15;2.90;;;-5.30;99.90;;;;;;2072540;28;20265;-72
2022/02/12 03:50:12;;;;;;;5.47;2.53;;;-5.30;99.90;;;;;;2080884;28;20569;-71
2022/02/12 03:51:13;;;;;;;4.03;2.70;;;-5.30;99.90;;;;;;2081316;28;20205;-71
2022/02/12 03:52:13;;;;;;;3.60;2.37;;;-5.30;99.90;;;;;;2081434;28;20188;-71
2022/02/12 03:53:14;;;;;;;6.90;3.40;;;-5.30;99.90;;;;;;2081238;28;20197;-70
2022/02/12 03:54:15;;;;;;;4.20;2.13;;;-5.30;99.90;;;;;;2081625;28;20185;-71
2022/02/12 03:55:17;;;;;;;7.40;2.60;;;-5.30;99.90;;;;;;2080827;28;20698;-71
2022/02/12 03:56:17;;;;;;;4.65;2.47;;;-5.40;99.90;;;;;;2080950;28;20189;-71
2022/02/12 03:57:18;;;;;;;4.30;2.10;;;-5.30;99.90;;;;;;2080936;28;20629;-71
2022/02/12 03:58:20;;;;;;;6.70;2.50;;;-5.30;99.90;;;;;;2080834;28;20192;-71
2022/02/12 03:59:21;;;;;;;5.68;3.15;;;-5.30;99.90;;;;;;2080680;28;20223;-71
2022/02/12 04:00:23;;;;;;;4.47;2.40;;;-5.20;99.90;;;;;;2081403;28;20554;-70
2022/02/12 04:01:23;;;;;;;5.55;2.83;;;-5.20;99.90;;;;;;2080888;28;20185;-71
2022/02/12 04:02:25;;;;;;;3.23;2.00;;;-5.20;99.90;;;;;;2080737;28;20185;-71
2022/02/12 04:03:26;;;;;;;6.85;2.85;;;-5.20;99.90;;;;;;2080827;28;20859;-72
2022/02/12 04:04:27;;;;;;;4.53;2.67;;;-5.20;99.90;;;;;;2086490;28;20181;-72
2022/02/12 04:05:27;;;;;;;5.40;2.53;;;-5.20;99.90;;;;;;2089144;28;20176;-72
2022/02/12 04:06:28;;;;;;;3.77;2.20;;;-5.20;99.90;;;;;;2089008;28;20188;-72
2022/02/12 04:07:29;;;;;;;5.13;2.87;;;-5.30;99.90;;;;;;2089745;28;20429;-72
2022/02/12 04:08:29;;;;;;;4.77;2.10;;;-5.20;99.90;;;;;;2089776;28;20218;-72
2022/02/12 04:09:30;;;;;;;7.07;2.60;;;-5.20;99.90;;;;;;2089393;28;20890;-71
2022/02/12 04:10:31;;;;;;;5.53;2.27;;;-5.30;99.90;;;;;;2105513;28;20185;-72
2022/02/12 04:11:32;;;;;;;5.40;2.37;;;-5.30;99.90;;;;;;2105798;28;20852;-71
2022/02/12 04:12:33;;;;;;;6.77;2.67;;;-5.30;99.90;;;;;;2089609;28;20176;-71
2022/02/12 04:13:36;;;;;;;4.65;2.70;;;-5.30;99.90;;;;;;2089604;28;20842;-71
2022/02/12 04:14:37;;;;;;;4.32;2.03;;;-5.30;99.90;;;;;;2089406;28;20195;-71
2022/02/12 04:15:37;;;;;;;6.47;2.87;;;-5.30;99.90;;;;;;2089532;28;20722;-71
2022/02/12 04:16:38;;;;;;;8.27;2.70;;;-5.30;99.90;;;;;;2089440;28;20180;-71
2022/02/12 04:17:39;;;;;;;4.23;2.90;;;-5.40;99.90;;;;;;2089550;28;20184;-71
2022/02/12 04:18:40;;;;;;;9.90;3.25;;;-5.30;99.90;;;;;;2088559;28;20176;-71
2022/02/12 04:19:41;;;;;;;4.65;2.72;;;-5.40;99.90;;;;;;2088813;28;20176;-70
2022/02/12 04:20:42;;;;;;;8.03;3.40;;;-5.30;99.90;;;;;;2089559;28;20187;-71
2022/02/12 04:21:42;;;;;;;7.00;3.20;;;-5.30;99.90;;;;;;2089596;28;20188;-71
2022/02/12 04:22:44;;;;;;;6.17;2.57;;;-5.20;99.90;;;;;;2089006;28;20190;-71
2022/02/12 04:23:45;;;;;;;4.75;2.80;;;-5.30;99.90;;;;;;2080678;28;20231;-71
2022/02/12 04:24:45;;;;;;;7.13;2.70;;;-5.30;99.90;;;;;;2089007;28;20194;-71
2022/02/12 04:25:46;;;;;;;4.90;2.57;;;-5.20;99.90;;;;;;2089588;28;20175;-71
2022/02/12 04:26:47;;;;;;;4.70;2.97;;;-5.20;99.90;;;;;;2089662;28;20180;-71
2022/02/12 04:27:48;;;;;;;5.70;2.63;;;-5.20;99.90;;;;;;2088956;28;20184;-70
2022/02/12 04:28:49;;;;;;;7.95;3.30;;;-5.20;99.90;;;;;;2080657;28;20229;-72
2022/02/12 04:29:50;;;;;;;4.82;3.45;;;-5.20;99.90;;;;;;2080721;28;20193;-72
2022/02/12 04:30:50;;;;;;;4.33;2.67;;;-5.30;99.90;;;;;;2088787;28;20302;-72
2022/02/12 04:31:51;;;;;;;3.97;2.37;;;-5.30;99.90;;;;;;2089618;28;20171;-72
2022/02/12 04:32:52;;;;;;;7.83;3.40;;;-5.30;99.90;;;;;;2088744;28;20738;-72
2022/02/12 04:33:53;;;;;;;6.13;3.00;;;-5.30;99.90;;;;;;2089005;28;20176;-72
2022/02/12 04:34:54;;;;;;;6.30;2.77;;;-5.30;99.90;;;;;;2088734;28;20180;-72
2022/02/12 04:35:55;;;;;;;4.45;2.70;;;-5.30;99.90;;;;;;2089372;28;20176;-72
2022/02/12 04:36:56;;;;;;;4.77;3.10;;;-5.30;99.90;;;;;;2089362;28;20184;-72
2022/02/12 04:37:57;;;;;;;4.47;2.83;;;-5.30;99.90;;;;;;2088639;28;20226;-72
2022/02/12 04:38:58;;;;;;;5.30;2.60;;;-5.30;99.90;;;;;;2088815;28;20176;-72
2022/02/12 04:39:59;;;;;;;6.43;2.97;;;-5.30;99.90;;;;;;2088752;28;20187;-72
2022/02/12 04:41:00;;;;;;;6.30;3.03;;;-5.30;99.90;;;;;;2088796;28;20186;-72
2022/02/12 04:42:01;;;;;;;5.80;3.00;;;-5.30;99.90;;;;;;2088606;28;20195;-72
2022/02/12 04:43:02;;;;;;;7.43;3.57;;;-5.30;99.90;;;;;;2088665;28;20597;-72
2022/02/12 04:44:04;;;;;;;4.63;2.50;;;-5.30;99.90;;;;;;2088567;28;20566;-72
2022/02/12 04:45:05;;;;;;;7.43;2.30;;;-5.30;99.90;;;;;;2080276;28;20185;-72
2022/02/12 04:46:06;;;;;;;5.68;2.33;;;-5.30;99.90;;;;;;2088549;28;20230;-72
2022/02/12 04:47:07;;;;;;;6.13;2.80;;;-5.30;99.90;;;;;;2088790;28;20182;-72
2022/02/12 04:48:08;;;;;;;4.50;2.63;;;-5.40;99.90;;;;;;2088168;28;20177;-72
2022/02/12 04:49:09;;;;;;;4.17;2.90;;;-5.40;99.90;;;;;;2088466;28;20258;-72
2022/02/12 04:50:10;;;;;;;3.50;2.23;;;-5.40;99.90;;;;;;2089188;28;20184;-72
2022/02/12 04:51:10;;;;;;;5.15;2.85;;;-5.40;99.90;;;;;;2088490;28;20220;-72
2022/02/12 04:52:14;;;;;;;5.17;2.60;;;-5.40;99.90;;;;;;2088649;28;20192;-72
2022/02/12 04:53:15;;;;;;;9.73;2.58;;;-5.40;99.90;;;;;;2089043;28;20192;-72
2022/02/12 04:54:16;;;;;;;5.17;3.13;;;-5.40;99.90;;;;;;2089209;28;20736;-72
2022/02/12 04:55:16;;;;;;;6.13;2.83;;;-5.40;99.90;;;;;;2088493;28;20189;-72
2022/02/12 04:56:18;;;;;;;4.77;2.57;;;-5.30;99.90;;;;;;2088533;28;20184;-72
2022/02/12 04:57:19;;;;;;;9.63;2.75;;;-5.40;99.90;;;;;;2088492;28;20180;-72
2022/02/12 04:58:19;;;;;;;6.53;2.50;;;-5.30;99.90;;;;;;2088455;28;20184;-72
2022/02/12 04:59:20;;;;;;;3.87;2.70;;;-5.30;99.90;;;;;;2089020;28;20581;-72
2022/02/12 05:00:21;;;;;;;6.70;2.50;;;-5.30;99.90;;;;;;2088486;28;20206;-72
2022/02/12 05:01:22;;;;;;;5.47;3.00;;;-5.30;99.90;;;;;;2088577;28;20185;-72
2022/02/12 05:02:23;;;;;;;6.63;2.78;;;-5.30;99.90;;;;;;2089151;28;20180;-72
2022/02/12 05:03:24;;;;;;;5.07;2.43;;;-5.30;99.90;;;;;;2088980;28;20212;-72
2022/02/12 05:04:24;;;;;;;5.33;2.83;;;-5.30;99.90;;;;;;2088966;28;20176;-72
2022/02/12 05:05:25;;;;;;;4.60;2.60;;;-5.30;99.90;;;;;;2089240;28;20182;-72
2022/02/12 05:06:25;;;;;;;4.10;3.10;;;-5.20;99.90;;;;;;2089067;28;20187;-72
2022/02/12 05:07:26;;;;;;;5.27;2.43;;;-5.30;99.90;;;;;;2088433;28;20729;-72
2022/02/12 05:08:27;;;;;;;5.00;2.90;;;-5.40;99.90;;;;;;2088424;28;20219;-72
2022/02/12 05:09:28;;;;;;;7.07;3.00;;;-5.40;99.90;;;;;;2089013;28;20173;-72
2022/02/12 05:10:29;;;;;;;5.35;2.75;;;-5.40;99.90;;;;;;2089033;28;20191;-72
2022/02/12 05:11:30;;;;;;;6.97;2.53;;;-5.50;99.90;;;;;;2089140;28;20218;-72
2022/02/12 05:12:31;;;;;;;4.63;2.40;;;-5.50;99.90;;;;;;2088312;28;20553;-71
2022/02/12 05:13:32;;;;;;;5.20;2.90;;;-5.40;99.90;;;;;;2088439;28;20199;-72
2022/02/12 05:14:33;;;;;;;5.17;3.47;;;-5.50;99.90;;;;;;2088272;28;20827;-72
2022/02/12 05:15:34;;;;;;;38.25;4.57;;;-5.50;99.90;;;;;;2088452;28;20651;-72
2022/02/12 05:16:35;;;;;;;5.60;3.00;;;-5.50;99.90;;;;;;2088364;28;20177;-72
2022/02/12 05:17:35;;;;;;;7.80;2.85;;;-5.40;99.90;;;;;;2096847;28;20172;-72
2022/02/12 05:18:36;;;;;;;10.67;3.43;;;-5.40;99.90;;;;;;2088485;28;20172;-72
2022/02/12 05:19:37;;;;;;;6.97;2.50;;;-5.40;99.90;;;;;;2080229;28;20191;-72
2022/02/12 05:20:37;;;;;;;4.43;3.07;;;-5.50;99.90;;;;;;2088702;28;20179;-72
2022/02/12 05:21:40;;;;;;;5.17;2.33;;;-5.60;99.90;;;;;;2088623;28;20705;-72
2022/02/12 05:22:41;;;;;;;5.72;2.78;;;-5.70;99.90;;;;;;2088574;28;20179;-71